Time;durP1;ratioP1;P1;durP2;ratioP2;P2;SDS_P1;SDS_P2;PMS_P1;PMS_P2;Temp;Humidity;BMP_temperature;BMP_pressure;BME280_temperature;BME280_humidity;BME280_pressure;Samples;Min_cycle;Max_cycle;Signal;HPM_P1;HPM_P2
2022/04/21 00:01:26;;;;;;;6.95;6.35;;;;;;;11.19;83.38;94885.28;5093943;28;20051;-58
2022/04/21 00:03:51;;;;;;;7.57;6.63;;;;;;;11.51;81.66;94874.88;5100026;28;20300;-58
2022/04/21 00:06:17;;;;;;;7.90;7.15;;;;;;;11.45;81.55;94879.84;5096132;28;20552;-58
2022/04/21 00:08:42;;;;;;;8.35;6.80;;;;;;;11.38;82.01;94885.94;5096639;28;20461;-58
2022/04/21 00:11:08;;;;;;;8.70;6.65;;;;;;;11.16;83.10;94883.00;5095093;28;20028;-58
2022/04/21 00:13:34;;;;;;;7.47;6.78;;;;;;;11.38;81.90;94881.47;5095197;28;20131;-58
2022/04/21 00:15:59;;;;;;;7.65;6.65;;;;;;;11.29;82.60;94878.06;5103921;28;20490;-58
2022/04/21 00:18:25;;;;;;;7.47;6.80;;;;;;;11.44;81.49;94874.72;5096579;28;20036;-58
2022/04/21 00:20:50;;;;;;;8.65;6.32;;;;;;;11.43;81.88;94876.56;5094260;28;20036;-58
2022/04/21 00:23:28;;;;;;;7.25;6.55;;;;;;;11.11;83.04;94872.94;5098658;28;20032;-58
2022/04/21 00:25:58;;;;;;;7.13;6.53;;;;;;;11.09;83.41;94874.91;5094236;28;20402;-58
2022/04/21 00:28:24;;;;;;;6.88;6.35;;;;;;;11.18;82.73;94873.09;5094806;28;20054;-58
2022/04/21 00:30:50;;;;;;;6.63;6.13;;;;;;;11.23;82.68;94875.25;5094438;28;20035;-58
2022/04/21 00:33:15;;;;;;;8.07;6.22;;;;;;;11.31;82.14;94873.44;5099248;28;20415;-58
2022/04/21 00:35:41;;;;;;;7.30;6.20;;;;;;;11.15;82.73;94866.34;5093926;28;20487;-57
2022/04/21 00:38:06;;;;;;;7.75;5.88;;;;;;;11.25;82.79;94873.28;5098386;28;20036;-58
2022/04/21 00:40:32;;;;;;;6.68;6.10;;;;;;;11.25;82.70;94866.19;5099400;28;20034;-58
2022/04/21 00:42:58;;;;;;;7.88;5.95;;;;;;;11.50;81.99;94862.69;5096308;28;20496;-58
2022/04/21 00:45:25;;;;;;;6.72;6.13;;;;;;;11.21;83.26;94864.06;5095173;28;20028;-58
2022/04/21 00:47:53;;;;;;;7.38;6.65;;;;;;;11.09;84.15;94858.31;5097491;28;20020;-58
2022/04/21 00:50:24;;;;;;;6.80;6.20;;;;;;;11.24;83.88;94856.63;5102018;28;20142;-58
2022/04/21 00:52:51;;;;;;;7.60;6.90;;;;;;;11.21;83.97;94854.31;5094992;28;20016;-58
2022/04/21 00:55:17;;;;;;;7.65;6.93;;;;;;;11.21;84.10;94854.31;5096208;28;20029;-58
2022/04/21 00:57:43;;;;;;;7.57;6.63;;;;;;;11.04;84.80;94853.53;5091901;28;20556;-58
2022/04/21 01:00:10;;;;;;;7.45;6.63;;;;;;;11.11;84.80;94849.22;5094983;28;20613;-58
2022/04/21 01:02:51;;;;;;;7.00;6.40;;;;;;;10.99;85.56;94848.75;5095088;28;20027;-58
2022/04/21 01:05:32;;;;;;;7.03;6.43;;;;;;;10.81;87.04;94855.97;5097277;28;20395;-58
2022/04/21 01:08:08;;;;;;;7.18;6.57;;;;;;;10.86;86.30;94849.25;5089238;28;20501;-58
2022/04/21 01:10:36;;;;;;;7.68;6.97;;;;;;;11.18;84.65;94844.13;5093704;28;20405;-58
2022/04/21 01:13:06;;;;;;;6.78;6.20;;;;;;;11.02;85.63;94845.78;5098127;28;20016;-58
2022/04/21 01:15:32;;;;;;;7.13;6.63;;;;;;;10.93;86.00;94845.94;5095503;28;20023;-57
2022/04/21 01:17:57;;;;;;;7.43;6.85;;;;;;;11.20;84.83;94843.97;5096729;28;20432;-58
2022/04/21 01:20:23;;;;;;;7.28;6.68;;;;;;;10.93;86.35;94848.56;5092250;28;20145;-58
2022/04/21 01:22:50;;;;;;;7.78;6.65;;;;;;;10.75;87.63;94841.69;5094550;28;20042;-58
2022/04/21 01:25:16;;;;;;;7.38;6.78;;;;;;;10.74;88.12;94838.22;5091881;28;20037;-58
2022/04/21 01:27:42;;;;;;;7.20;6.50;;;;;;;11.13;86.22;94833.28;5095681;28;20040;-58
2022/04/21 01:30:10;;;;;;;7.60;6.93;;;;;;;10.92;87.01;94839.03;5092068;28;20032;-58
2022/04/21 01:32:36;;;;;;;6.80;6.18;;;;;;;11.01;86.60;94828.34;5094101;28;20391;-58
2022/04/21 01:35:03;;;;;;;7.72;7.03;;;;;;;10.97;86.60;94829.66;5095129;28;20031;-57
2022/04/21 01:42:57;;;;;;;7.35;6.63;;;;;;;10.83;87.80;94830.31;5093987;28;20089;-58
2022/04/21 01:45:22;;;;;;;6.38;5.78;;;;;;;10.88;87.76;94822.75;5096994;28;20035;-58
2022/04/21 01:47:48;;;;;;;7.18;6.05;;;;;;;10.88;88.29;94828.03;5093119;28;20024;-58
2022/04/21 01:50:13;;;;;;;8.75;7.03;;;;;;;11.03;87.80;94828.19;5096170;28;20028;-58
2022/04/21 01:52:39;;;;;;;7.40;6.82;;;;;;;10.87;88.25;94823.75;5093600;28;20111;-59
2022/04/21 01:55:05;;;;;;;6.78;6.18;;;;;;;10.85;88.00;94821.25;5093890;28;20086;-58
2022/04/21 01:57:31;;;;;;;7.00;6.50;;;;;;;11.13;86.65;94825.38;5094897;28;20077;-58
2022/04/21 01:59:56;;;;;;;7.57;6.90;;;;;;;11.05;86.63;94826.19;5096072;28;20031;-58
2022/04/21 02:02:21;;;;;;;7.13;6.47;;;;;;;11.02;87.39;94823.91;5096919;28;20439;-58
2022/04/21 02:04:47;;;;;;;7.75;7.05;;;;;;;10.92;87.84;94817.97;5094800;28;20063;-58
2022/04/21 02:07:14;;;;;;;7.03;6.32;;;;;;;10.80;88.31;94817.47;5094917;28;20019;-58
2022/04/21 02:09:39;;;;;;;7.28;6.63;;;;;;;10.75;88.68;94815.34;5093093;28;20031;-58
2022/04/21 02:12:06;;;;;;;6.90;6.30;;;;;;;10.89;88.27;94819.13;5095177;28;20024;-58
2022/04/21 02:14:31;;;;;;;7.80;6.88;;;;;;;10.89;87.81;94814.69;5094454;28;20098;-58
2022/04/21 02:16:57;;;;;;;7.60;6.97;;;;;;;10.91;88.36;94814.53;5091485;28;20107;-58
2022/04/21 02:19:22;;;;;;;6.78;6.18;;;;;;;10.74;88.88;94806.63;5096404;28;20031;-58
2022/04/21 02:21:47;;;;;;;6.93;6.30;;;;;;;10.90;88.69;94807.63;5096990;28;20024;-58
2022/04/21 02:24:13;;;;;;;7.20;6.60;;;;;;;10.69;89.36;94805.47;5094695;28;20035;-57
2022/04/21 02:26:38;;;;;;;9.65;6.80;;;;;;;10.85;88.86;94807.28;5092782;28;20023;-58
2022/04/21 02:29:04;;;;;;;6.68;6.18;;;;;;;10.95;88.15;94800.03;5095372;28;20039;-58
2022/04/21 02:31:29;;;;;;;8.15;6.68;;;;;;;10.99;87.99;94800.53;5095195;28;20031;-58
2022/04/21 02:33:54;;;;;;;7.20;6.22;;;;;;;11.00;88.41;94797.72;5093973;28;20034;-58
2022/04/21 02:36:20;;;;;;;8.80;6.72;;;;;;;11.01;88.06;94795.91;5093440;28;20141;-58
2022/04/21 02:38:45;;;;;;;7.93;7.25;;;;;;;10.97;87.98;94790.16;5095849;28;20397;-58
2022/04/21 02:41:10;;;;;;;6.78;6.10;;;;;;;10.99;88.03;94790.81;5095245;28;20126;-58
2022/04/21 02:43:36;;;;;;;7.40;6.05;;;;;;;11.00;87.83;94789.00;5094388;28;20055;-58
2022/04/21 02:46:01;;;;;;;7.15;6.60;;;;;;;10.93;88.29;94785.38;5092318;28;20116;-58
2022/04/21 02:48:28;;;;;;;6.32;5.80;;;;;;;10.72;89.16;94789.34;5096085;28;20043;-57
2022/04/21 02:50:53;;;;;;;7.32;6.60;;;;;;;10.69;89.94;94789.66;5093401;28;20036;-58
2022/04/21 02:57:19;;;;;;;7.47;6.47;;;;;;;10.56;90.79;94788.38;5093645;28;20105;-58
2022/04/21 02:58:50;;;;;;;7.13;6.43;;;;;;;10.65;89.93;94776.03;5092832;28;20046;-57
2022/04/21 03:01:15;;;;;;;7.30;6.63;;;;;;;10.83;89.57;94780.28;5097480;28;20106;-58
2022/04/21 03:03:41;;;;;;;6.85;6.25;;;;;;;10.94;88.93;94769.41;5093146;28;20111;-58
2022/04/21 03:06:06;;;;;;;7.65;7.07;;;;;;;10.75;90.04;94770.59;5088259;28;20027;-58
2022/04/21 03:08:31;;;;;;;6.40;5.80;;;;;;;10.80;90.08;94768.28;5095519;28;20478;-58
2022/04/21 03:10:57;;;;;;;7.53;6.82;;;;;;;10.61;90.50;94769.47;5091690;28;20024;-58
2022/04/21 03:13:22;;;;;;;7.07;6.47;;;;;;;10.60;90.91;94759.88;5095438;28;20028;-58
2022/04/21 03:15:47;;;;;;;8.25;7.20;;;;;;;10.63;90.53;94762.22;5092598;28;20059;-58
2022/04/21 03:18:13;;;;;;;7.40;6.53;;;;;;;10.58;91.00;94760.06;5096011;28;20070;-58
2022/04/21 03:26:06;;;;;;;7.70;6.32;;;;;;;10.43;91.69;94746.75;5093310;28;20054;-58
2022/04/21 03:28:31;;;;;;;8.27;6.72;;;;;;;10.51;92.30;94751.19;5094198;28;20028;-58
2022/04/21 03:30:57;;;;;;;7.53;6.88;;;;;;;10.57;91.55;94741.81;5096721;28;20051;-58
2022/04/21 03:33:23;;;;;;;7.68;6.97;;;;;;;10.57;91.76;94752.31;5100024;28;20027;-58
2022/04/21 03:35:48;;;;;;;7.75;7.15;;;;;;;10.46;92.63;94748.22;5095640;28;20486;-58
2022/04/21 03:38:14;;;;;;;8.10;7.40;;;;;;;10.66;91.45;94751.34;5099479;28;20068;-58
2022/04/21 03:40:40;;;;;;;7.47;6.88;;;;;;;10.53;91.56;94757.13;5098756;28;20082;-58
2022/04/21 03:43:07;;;;;;;7.13;6.22;;;;;;;10.41;92.65;94748.72;5097814;28;20077;-58
2022/04/21 03:45:33;;;;;;;8.30;6.78;;;;;;;10.50;92.02;94751.34;5096944;28;20032;-58
2022/04/21 03:48:01;;;;;;;6.72;6.20;;;;;;;10.47;92.23;94752.50;5097213;28;20034;-58
2022/04/21 03:50:27;;;;;;;7.65;6.95;;;;;;;10.70;91.25;94741.28;5097295;28;20023;-58
2022/04/21 03:52:52;;;;;;;7.53;6.80;;;;;;;10.55;91.91;94744.63;5095438;28;20081;-58
2022/04/21 03:55:17;;;;;;;7.78;6.97;;;;;;;10.46;92.17;94741.16;5099883;28;20038;-58
2022/04/21 03:57:43;;;;;;;7.15;6.63;;;;;;;10.42;93.22;94739.00;5097442;28;20065;-58
2022/04/21 04:00:10;;;;;;;7.60;6.97;;;;;;;10.30;94.45;94741.13;5095627;28;20437;-58
2022/04/21 04:02:35;;;;;;;8.65;7.57;;;;;;;10.29;93.84;94744.72;5093869;28;20024;-58
2022/04/21 04:05:02;;;;;;;7.28;6.63;;;;;;;10.45;93.20;94739.50;5097816;28;20093;-57
2022/04/21 04:12:55;;;;;;;8.07;7.45;;;;;;;10.64;91.43;94741.97;5094155;28;20031;-58
2022/04/21 04:15:21;;;;;;;8.43;7.18;;;;;;;10.48;92.16;94743.59;5095996;28;20032;-58
2022/04/21 04:17:47;;;;;;;7.55;6.68;;;;;;;10.34;93.20;94741.63;5098415;28;20074;-58
2022/04/21 04:20:12;;;;;;;7.63;6.93;;;;;;;10.30;93.82;94746.38;5094865;28;20052;-58
2022/04/21 04:22:40;;;;;;;7.20;6.63;;;;;;;10.27;95.25;94750.16;5098175;28;20032;-58
2022/04/21 04:25:08;;;;;;;7.30;6.57;;;;;;;10.26;95.33;94748.50;5126643;27;20477;-58
2022/04/21 04:27:35;;;;;;;9.25;7.32;;;;;;;10.23;95.64;94745.41;5130838;27;20023;-58
2022/04/21 04:30:01;;;;;;;8.60;6.50;;;;;;;10.20;95.90;94743.91;5091297;28;20484;-58
2022/04/21 04:32:26;;;;;;;7.15;6.50;;;;;;;10.25;95.08;94746.06;5096477;28;20024;-58
2022/04/21 04:34:52;;;;;;;7.35;6.70;;;;;;;10.29;94.47;94740.31;5096380;28;20016;-58
2022/04/21 04:37:17;;;;;;;13.40;7.15;;;;;;;10.25;95.42;94738.97;5098970;28;20027;-58
2022/04/21 04:39:43;;;;;;;7.80;6.80;;;;;;;10.28;95.01;94745.72;5095924;28;20032;-58
2022/04/21 04:42:17;;;;;;;7.55;6.85;;;;;;;10.30;94.76;94739.31;5095249;28;20063;-58
2022/04/21 04:44:44;;;;;;;6.75;6.25;;;;;;;10.38;93.69;94732.41;5098525;28;20079;-57
2022/04/21 04:47:09;;;;;;;11.80;6.97;;;;;;;10.74;91.50;94745.25;5095584;28;20032;-58
2022/04/21 04:49:34;;;;;;;7.60;6.93;;;;;;;10.47;92.74;94741.97;5096813;28;20077;-58
2022/04/21 04:52:00;;;;;;;9.13;6.50;;;;;;;10.40;93.30;94746.22;5094050;28;20039;-58
2022/04/21 04:54:25;;;;;;;6.95;6.35;;;;;;;10.32;94.29;94745.25;5097638;28;20055;-58
2022/04/21 04:56:51;;;;;;;8.50;7.35;;;;;;;10.37;93.32;94741.28;5093532;28;20097;-58
2022/04/21 04:59:16;;;;;;;7.57;6.60;;;;;;;10.36;94.17;94739.66;5098911;28;20111;-58
2022/04/21 05:01:45;;;;;;;7.20;6.60;;;;;;;10.35;94.09;94743.25;5094390;28;20035;-58
2022/04/21 05:04:18;;;;;;;7.47;6.90;;;;;;;10.40;93.66;94743.59;5094090;28;20034;-58
2022/04/21 05:06:49;;;;;;;7.43;6.72;;;;;;;10.35;94.76;94748.53;5094351;28;20036;-58
2022/04/21 05:09:19;;;;;;;7.03;6.43;;;;;;;10.32;95.08;94750.50;5096839;28;20023;-58
2022/04/21 05:11:47;;;;;;;11.55;6.97;;;;;;;10.35;94.71;94749.34;5099043;28;20061;-58
2022/04/21 05:14:13;;;;;;;7.30;6.75;;;;;;;10.40;93.77;94751.47;5096260;28;20107;-58
2022/04/21 05:16:39;;;;;;;7.35;6.57;;;;;;;10.39;94.20;94755.94;5095364;28;20490;-58
2022/04/21 05:19:09;;;;;;;7.50;6.90;;;;;;;10.35;94.25;94762.50;5095176;28;20028;-58
2022/04/21 05:21:36;;;;;;;7.57;6.78;;;;;;;10.40;94.20;94757.59;5093211;28;20047;-58
2022/04/21 05:24:02;;;;;;;6.63;5.95;;;;;;;10.41;94.33;94764.50;5096358;28;20051;-58
2022/04/21 05:26:29;;;;;;;7.90;7.10;;;;;;;10.36;95.45;94758.06;5096942;28;20032;-58
2022/04/21 05:28:56;;;;;;;6.78;6.28;;;;;;;10.35;94.84;94759.84;5094598;28;20414;-58
2022/04/21 05:31:22;;;;;;;6.63;6.00;;;;;;;10.41;94.77;94759.25;5094358;28;20032;-58
2022/04/21 05:33:48;;;;;;;7.57;6.95;;;;;;;10.45;94.19;94757.94;5097600;28;20111;-58
2022/04/21 05:36:14;;;;;;;6.78;6.28;;;;;;;10.48;94.19;94764.66;5094539;28;20047;-58
2022/04/21 05:38:40;;;;;;;6.82;6.22;;;;;;;10.57;93.34;94753.16;5096289;28;20036;-58
2022/04/21 05:41:06;;;;;;;6.78;6.18;;;;;;;10.64;92.75;94753.34;5095879;28;20169;-58
2022/04/21 05:43:46;;;;;;;9.52;7.50;;;;;;;10.66;92.66;94761.03;5098283;28;20499;-58
2022/04/21 05:46:15;;;;;;;7.32;6.60;;;;;;;10.73;91.93;94751.53;5098044;28;20110;-58
2022/04/21 05:48:42;;;;;;;8.35;7.18;;;;;;;10.80;91.43;94749.84;5094152;28;20032;-58
2022/04/21 05:51:10;;;;;;;9.43;6.40;;;;;;;10.83;91.14;94746.88;5079117;28;20566;-58
2022/04/21 05:53:38;;;;;;;7.50;6.78;;;;;;;10.85;90.81;94747.53;5095576;28;20031;-58
2022/04/21 05:56:05;;;;;;;7.28;6.55;;;;;;;10.84;91.15;94742.47;5094368;28;20019;-58
2022/04/21 05:58:31;;;;;;;7.15;6.60;;;;;;;10.94;89.96;94747.50;5097327;28;20031;-58
2022/04/21 06:00:57;;;;;;;10.18;5.72;;;;;;;10.98;88.72;94733.84;5093491;28;20028;-58
2022/04/21 06:03:23;;;;;;;7.22;6.32;;;;;;;11.10;87.53;94733.50;5096495;28;20084;-58
2022/04/21 06:05:49;;;;;;;6.68;6.18;;;;;;;11.10;86.82;94739.59;5092113;28;20032;-58
2022/04/21 06:08:14;;;;;;;7.32;6.20;;;;;;;11.08;86.22;94733.66;5094626;28;20031;-58
2022/04/21 06:10:40;;;;;;;7.75;6.13;;;;;;;11.14;85.79;94732.97;5098187;28;20107;-58
2022/04/21 06:13:06;;;;;;;5.93;5.43;;;;;;;11.30;84.52;94736.56;5093736;28;20028;-58
2022/04/21 06:15:32;;;;;;;5.85;5.45;;;;;;;11.35;83.82;94739.50;5093349;28;20037;-58
2022/04/21 06:17:58;;;;;;;6.53;5.95;;;;;;;11.38;82.56;94736.53;5096305;28;20039;-58
2022/04/21 06:20:25;;;;;;;6.30;5.70;;;;;;;11.46;81.19;94727.78;5094008;28;20030;-58
2022/04/21 06:22:50;;;;;;;6.25;5.65;;;;;;;11.46;79.48;94728.63;5093602;28;20101;-58
2022/04/21 06:25:16;;;;;;;6.20;5.60;;;;;;;11.53;78.49;94726.13;5095112;28;20052;-58
2022/04/21 06:27:41;;;;;;;5.95;5.55;;;;;;;11.72;76.68;94719.59;5095852;28;20468;-58
2022/04/21 06:30:07;;;;;;;6.15;5.60;;;;;;;11.79;75.09;94721.53;5094400;28;20034;-58
2022/04/21 06:32:32;;;;;;;9.98;5.10;;;;;;;11.87;74.13;94718.88;5094564;28;20023;-58
2022/04/21 06:34:58;;;;;;;6.20;5.60;;;;;;;12.01;73.73;94718.13;5094707;28;20012;-59
2022/04/21 06:37:23;;;;;;;12.93;5.20;;;;;;;12.14;73.19;94714.09;5095179;28;20247;-58
2022/04/21 06:39:49;;;;;;;6.65;5.40;;;;;;;12.44;70.41;94707.13;5087072;28;20541;-59
2022/04/21 06:42:15;;;;;;;7.70;5.68;;;;;;;12.65;68.30;94712.72;5096249;28;20583;-58
2022/04/21 06:50:11;;;;;;;5.90;5.00;;;;;;;13.81;62.10;94700.88;5095723;28;20047;-58
2022/04/21 06:52:37;;;;;;;5.72;5.30;;;;;;;14.50;59.94;94707.47;5092474;28;20036;-58
2022/04/21 06:55:03;;;;;;;4.72;4.32;;;;;;;15.08;56.89;94700.41;5094444;28;20025;-58
2022/04/21 06:57:29;;;;;;;5.25;4.75;;;;;;;15.58;55.09;94693.09;5093747;28;20115;-59
2022/04/21 06:59:54;;;;;;;6.38;4.55;;;;;;;16.04;53.70;94689.00;5095428;28;20103;-59
2022/04/21 07:02:27;;;;;;;4.90;4.50;;;;;;;16.60;50.19;94687.03;5092839;28;20081;-58
2022/04/21 07:04:52;;;;;;;4.70;4.40;;;;;;;16.71;50.28;94682.94;5095299;28;20024;-58
2022/04/21 07:07:17;;;;;;;5.10;4.47;;;;;;;17.07;48.06;94674.75;5097244;28;20031;-59
2022/04/21 07:09:43;;;;;;;6.10;3.97;;;;;;;17.35;47.26;94676.31;5094368;28;20032;-59
2022/04/21 07:12:09;;;;;;;5.88;4.45;;;;;;;16.99;49.05;94662.50;5098314;28;20073;-58
2022/04/21 07:14:35;;;;;;;4.15;3.83;;;;;;;17.18;47.63;94661.66;5096014;28;20067;-59
2022/04/21 07:17:00;;;;;;;4.72;4.30;;;;;;;17.51;46.65;94654.59;5096485;28;20055;-59
2022/04/21 07:19:25;;;;;;;5.20;4.30;;;;;;;17.92;46.42;94655.19;5100275;28;20051;-58
2022/04/21 07:21:51;;;;;;;5.07;4.13;;;;;;;18.27;45.90;94646.84;5097049;28;20028;-58
2022/04/21 07:24:16;;;;;;;10.18;4.20;;;;;;;18.33;45.41;94653.94;5098158;28;20472;-59
2022/04/21 07:26:41;;;;;;;3.97;3.67;;;;;;;17.85;47.07;94651.78;5097906;28;20032;-58
2022/04/21 07:29:07;;;;;;;4.68;4.22;;;;;;;18.06;47.03;94636.53;5097905;28;20498;-58
2022/04/21 07:31:32;;;;;;;9.02;4.40;;;;;;;18.25;47.17;94632.09;5096662;28;20050;-58
2022/04/21 07:33:57;;;;;;;4.30;4.00;;;;;;;17.56;49.00;94633.47;5098220;28;20494;-58
2022/04/21 07:36:23;;;;;;;4.68;4.32;;;;;;;17.30;50.44;94626.41;5096644;28;20301;-58
2022/04/21 07:38:49;;;;;;;4.68;4.28;;;;;;;17.57;50.12;94621.81;5098527;28;20024;-58
2022/04/21 07:41:14;;;;;;;5.40;4.90;;;;;;;18.13;48.97;94613.31;5098095;28;20475;-59
2022/04/21 07:43:42;;;;;;;8.77;5.38;;;;;;;17.24;50.95;94612.13;5099738;28;20075;-59
2022/04/21 07:46:09;;;;;;;5.70;5.05;;;;;;;16.28;53.91;94617.75;5099795;28;20027;-58
2022/04/21 07:51:18;;;;;;;5.07;4.68;;;;;;;15.30;58.72;94611.81;5097487;28;20055;-58
2022/04/21 07:53:44;;;;;;;6.10;5.60;;;;;;;15.18;59.48;94611.56;5099864;28;20505;-58
2022/04/21 07:56:09;;;;;;;5.63;5.18;;;;;;;15.49;59.01;94605.94;5098037;28;20024;-58
2022/04/21 07:58:35;;;;;;;5.80;4.63;;;;;;;16.13;56.72;94614.47;5096667;28;20023;-58
2022/04/21 08:01:00;;;;;;;4.90;4.50;;;;;;;17.08;52.52;94605.41;5097283;28;20521;-58
2022/04/21 08:03:26;;;;;;;5.28;4.35;;;;;;;17.78;51.13;94597.72;5097789;28;20391;-58
2022/04/21 08:05:51;;;;;;;5.13;4.72;;;;;;;18.28;49.58;94605.84;5094929;28;20028;-58
2022/04/21 08:08:17;;;;;;;4.82;4.50;;;;;;;18.43;49.21;94602.84;5100023;28;20115;-58
2022/04/21 08:10:42;;;;;;;4.68;4.18;;;;;;;18.49;48.32;94601.16;5094999;28;20024;-58
2022/04/21 08:13:09;;;;;;;4.88;4.45;;;;;;;18.56;47.87;94609.91;5096433;28;20403;-58
2022/04/21 08:15:35;;;;;;;5.20;4.65;;;;;;;18.30;48.84;94598.44;5095270;28;20031;-58
2022/04/21 08:18:03;;;;;;;5.22;4.72;;;;;;;18.46;47.60;94601.59;5098438;28;20118;-58
2022/04/21 08:20:30;;;;;;;5.22;4.82;;;;;;;18.09;49.09;94590.81;5095499;28;20027;-58
2022/04/21 08:22:56;;;;;;;5.38;4.88;;;;;;;18.07;48.00;94588.38;5095021;28;20073;-58
2022/04/21 08:33:33;;;;;;;9.93;5.30;;;;;;;15.61;53.46;94594.56;5095182;28;20035;-58
2022/04/21 08:35:59;;;;;;;6.45;4.95;;;;;;;15.63;53.35;94585.56;5095717;28;20032;-58
2022/04/21 08:38:27;;;;;;;5.45;5.00;;;;;;;15.39;54.07;94599.19;5103256;28;20467;-58
2022/04/21 08:40:55;;;;;;;9.68;5.10;;;;;;;15.71;54.85;94594.16;5095847;28;20032;-58
2022/04/21 08:43:22;;;;;;;5.78;4.88;;;;;;;15.94;53.72;94589.56;5097140;28;20075;-58
2022/04/21 08:45:49;;;;;;;6.20;5.18;;;;;;;15.86;53.57;94591.31;5094341;28;20028;-58
2022/04/21 08:48:18;;;;;;;5.45;5.05;;;;;;;15.58;54.68;94583.50;5096567;28;20036;-58
2022/04/21 08:50:44;;;;;;;6.07;5.28;;;;;;;15.65;55.16;94583.53;5100954;28;20039;-58
2022/04/21 08:53:13;;;;;;;8.40;5.25;;;;;;;15.50;54.73;94589.00;5092911;28;20028;-58
2022/04/21 08:55:39;;;;;;;9.60;5.07;;;;;;;15.59;54.56;94585.19;5094130;28;20024;-58
2022/04/21 08:58:04;;;;;;;5.43;5.00;;;;;;;16.00;53.91;94583.44;5094730;28;20036;-58
2022/04/21 09:00:31;;;;;;;9.45;5.38;;;;;;;16.33;53.41;94588.75;5094935;28;20134;-58
2022/04/21 09:02:58;;;;;;;5.60;5.20;;;;;;;16.33;53.67;94585.25;5096260;28;20537;-58
2022/04/21 09:05:27;;;;;;;6.05;4.90;;;;;;;17.13;52.43;94584.34;5097202;28;20027;-58
2022/04/21 09:07:52;;;;;;;5.65;5.13;;;;;;;17.87;50.41;94572.50;5094368;28;20043;-58
2022/04/21 09:10:19;;;;;;;5.55;5.05;;;;;;;18.61;47.96;94577.28;5095004;28;20093;-58
2022/04/21 09:12:52;;;;;;;6.57;5.25;;;;;;;18.90;46.86;94583.75;5096631;28;20028;-58
2022/04/21 09:15:19;;;;;;;4.85;4.45;;;;;;;18.77;46.83;94586.56;5095162;28;20377;-58
2022/04/21 09:17:46;;;;;;;5.15;4.75;;;;;;;19.06;46.00;94591.44;5092957;28;20063;-58
2022/04/21 09:20:15;;;;;;;5.47;5.07;;;;;;;18.20;48.18;94587.44;5094901;28;20055;-58
2022/04/21 09:22:46;;;;;;;5.18;4.78;;;;;;;17.95;48.69;94590.88;5093629;28;20028;-58
2022/04/21 09:25:11;;;;;;;5.38;4.85;;;;;;;18.23;48.57;94588.88;5096744;28;20024;-58
2022/04/21 09:27:42;;;;;;;5.20;4.70;;;;;;;18.98;47.17;94582.66;5094653;28;20497;-58
2022/04/21 09:30:10;;;;;;;5.03;4.57;;;;;;;20.17;45.21;94585.06;5096339;28;20550;-58
2022/04/21 09:32:37;;;;;;;4.35;3.95;;;;;;;20.28;44.50;94592.31;5092889;28;20024;-58
2022/04/21 09:35:04;;;;;;;4.35;4.05;;;;;;;19.29;44.62;94593.41;5095492;28;20499;-58
2022/04/21 09:37:30;;;;;;;4.95;4.55;;;;;;;20.12;44.96;94583.09;5096840;28;20046;-58
2022/04/21 09:39:55;;;;;;;5.38;4.88;;;;;;;20.41;43.47;94579.75;5093434;28;20398;-59
2022/04/21 09:42:28;;;;;;;4.85;4.45;;;;;;;19.96;43.75;94575.72;5094273;28;20024;-58
2022/04/21 09:47:51;;;;;;;39.88;6.22;;;;;;;21.23;39.44;94562.06;5098499;28;20039;-59
2022/04/21 09:50:16;;;;;;;4.03;3.72;;;;;;;21.67;38.75;94558.91;5096304;28;20032;-58
2022/04/21 09:52:53;;;;;;;4.38;3.80;;;;;;;22.00;37.63;94549.34;5093055;28;20059;-58
2022/04/21 09:55:24;;;;;;;4.30;3.97;;;;;;;21.39;39.87;94539.09;5097743;28;20051;-58
2022/04/21 09:57:52;;;;;;;4.32;3.92;;;;;;;21.38;39.60;94532.13;5093850;28;20445;-58
2022/04/21 10:00:21;;;;;;;4.00;3.70;;;;;;;21.36;39.48;94526.19;5091646;28;20032;-58
2022/04/21 10:02:49;;;;;;;3.92;3.60;;;;;;;21.01;39.49;94521.75;5096494;28;20403;-58
2022/04/21 10:05:16;;;;;;;4.38;3.72;;;;;;;20.91;39.31;94514.31;5095462;28;20115;-58
2022/04/21 10:07:43;;;;;;;7.13;4.07;;;;;;;21.17;38.61;94512.16;5093828;28;20085;-58
2022/04/21 10:10:10;;;;;;;3.70;3.40;;;;;;;21.32;39.43;94507.09;5092708;28;20491;-58
2022/04/21 10:12:36;;;;;;;3.65;3.30;;;;;;;22.30;38.29;94505.31;5095479;28;20175;-58
2022/04/21 10:15:04;;;;;;;4.15;3.88;;;;;;;22.04;37.80;94501.41;5093949;28;20047;-58
2022/04/21 10:17:29;;;;;;;3.85;3.55;;;;;;;22.28;38.04;94493.19;5093748;28;20028;-58
2022/04/21 10:19:54;;;;;;;4.00;3.53;;;;;;;22.72;37.97;94500.56;5091955;28;20447;-58
2022/04/21 10:22:20;;;;;;;4.30;4.00;;;;;;;22.51;36.33;94508.31;5096227;28;20035;-58
2022/04/21 10:24:46;;;;;;;3.83;3.55;;;;;;;22.88;34.60;94505.09;5093805;28;20024;-58
2022/04/21 10:27:42;;;;;;;8.27;3.90;;;;;;;22.35;34.93;94498.41;5096595;28;20591;-59
2022/04/21 10:30:22;;;;;;;4.47;3.83;;;;;;;21.80;35.36;94506.13;5089769;28;20016;-58
2022/04/21 10:32:53;;;;;;;4.35;3.88;;;;;;;21.45;35.84;94506.00;5095849;28;20024;-58
2022/04/21 10:35:47;;;;;;;4.43;4.03;;;;;;;20.13;37.46;94511.75;5095288;28;20035;-58
2022/04/21 10:38:13;;;;;;;3.63;3.40;;;;;;;19.45;38.58;94512.75;5088264;28;20582;-58
2022/04/21 10:41:07;;;;;;;4.57;4.17;;;;;;;19.13;38.34;94512.97;5097050;28;20095;-58
2022/04/21 10:43:50;;;;;;;5.63;3.80;;;;;;;19.00;38.12;94515.78;5096696;28;20354;-58
2022/04/21 10:46:21;;;;;;;6.68;4.50;;;;;;;19.39;37.07;94504.81;5095910;28;20500;-58
2022/04/21 10:48:47;;;;;;;5.65;4.45;;;;;;;19.66;36.35;94507.94;5098100;28;20040;-58
2022/04/21 10:51:33;;;;;;;5.25;4.70;;;;;;;20.33;35.17;94503.41;5098465;28;20035;-58
2022/04/21 10:59:31;;;;;;;;;;;;;;;20.82;33.62;94492.47;5100061;28;20508;-58
2022/04/21 11:02:17;;;;;;;6.35;4.47;;;;;;;20.67;34.10;94482.22;5093123;28;19927;-58
2022/04/21 11:04:43;;;;;;;5.10;4.70;;;;;;;20.79;32.75;94482.22;5096544;28;20044;-58
2022/04/21 11:07:12;;;;;;;4.50;4.05;;;;;;;20.77;34.29;94481.63;5097323;28;20124;-58
2022/04/21 11:09:47;;;;;;;5.90;3.88;;;;;;;20.94;33.91;94484.41;5096250;28;20028;-58
2022/04/21 11:12:16;;;;;;;4.38;3.97;;;;;;;21.02;33.23;94485.91;5099401;28;20020;-58
2022/04/21 11:14:42;;;;;;;4.35;4.05;;;;;;;21.11;34.64;94486.34;5095470;28;20032;-58
2022/04/21 11:17:08;;;;;;;4.28;3.88;;;;;;;21.38;33.75;94477.75;5099569;28;20039;-57
2022/04/21 11:19:40;;;;;;;3.65;3.17;;;;;;;21.77;32.85;94474.44;5099540;28;20399;-57
2022/04/21 11:22:09;;;;;;;4.90;4.05;;;;;;;21.63;32.65;94484.63;5096343;28;20039;-58
2022/04/21 11:24:55;;;;;;;6.22;3.95;;;;;;;21.60;33.71;94481.38;5097708;28;20043;-58
2022/04/21 11:27:22;;;;;;;4.65;3.83;;;;;;;20.68;34.27;94485.75;5096517;28;20115;-58
2022/04/21 11:29:48;;;;;;;4.43;4.03;;;;;;;20.38;34.25;94498.19;5097290;28;20247;-58
2022/04/21 11:32:19;;;;;;;4.88;4.38;;;;;;;20.14;36.33;94500.03;5096323;28;20281;-58
2022/04/21 11:34:58;;;;;;;5.75;4.43;;;;;;;20.31;35.37;94492.13;5095015;28;20053;-58
2022/04/21 11:37:23;;;;;;;4.43;4.13;;;;;;;20.14;35.29;94498.19;5096913;28;20396;-58
2022/04/21 11:39:49;;;;;;;4.18;3.88;;;;;;;19.39;37.45;94492.31;5096569;28;20035;-58
2022/04/21 11:42:26;;;;;;;5.03;4.50;;;;;;;19.12;37.43;94500.66;5099009;28;20503;-58
2022/04/21 11:44:51;;;;;;;8.27;4.65;;;;;;;18.20;39.50;94496.88;5093931;28;20046;-58
2022/04/21 11:47:20;;;;;;;5.30;4.80;;;;;;;17.86;40.43;94489.16;5098110;28;20024;-58
2022/04/21 11:50:01;;;;;;;4.78;4.38;;;;;;;18.00;40.03;94484.53;5092949;28;20993;-58
2022/04/21 11:52:27;;;;;;;5.30;4.80;;;;;;;17.82;41.63;94484.50;5094039;28;20539;-58
2022/04/21 11:55:00;;;;;;;4.90;4.47;;;;;;;17.68;42.87;94483.75;5097546;28;20028;-57
2022/04/21 11:57:48;;;;;;;5.00;4.60;;;;;;;17.94;41.79;94474.75;5099478;28;20043;-58
2022/04/21 12:00:15;;;;;;;4.35;4.05;;;;;;;18.16;42.53;94475.22;5095401;28;20042;-58
2022/04/21 12:08:13;;;;;;;4.78;4.28;;;;;;;17.73;43.75;94462.66;5096984;28;20456;-58
2022/04/21 12:10:40;;;;;;;5.90;4.43;;;;;;;17.78;46.03;94468.13;5097680;28;20483;-58
2022/04/21 12:13:07;;;;;;;4.72;4.32;;;;;;;18.04;44.21;94466.31;5095046;28;20051;-58
2022/04/21 12:15:36;;;;;;;6.65;4.95;;;;;;;17.93;44.61;94462.47;5096651;28;20028;-58
2022/04/21 12:18:02;;;;;;;7.95;4.13;;;;;;;18.17;43.52;94465.38;5096590;28;20048;-58
2022/04/21 12:20:28;;;;;;;8.35;4.70;;;;;;;18.22;43.84;94457.53;5095529;28;20066;-58
2022/04/21 12:22:55;;;;;;;4.68;4.28;;;;;;;18.58;43.67;94447.94;5093886;28;20055;-58
2022/04/21 12:25:30;;;;;;;4.38;3.97;;;;;;;19.33;41.53;94448.66;5098262;28;20036;-58